Airport Information

KCEC - Del Norte County Airport

KCEC 160656Z AUTO 16010KT 10SM -RA SCT050 OVC060 11/07 A2970 RMK AO2 RAB05 SLP057 P0000 T01060072


  • General Information

  • Coordinates: N 41°46'48"/ W 124°14'13"
  • Location: N/A
  • Surveyed Elevation: 57 MSL

Operations

Flow Name Active Runways Conditions

Green background denotes normal operations.


Common Frequencies

Callsign Frequency Position Name

More at the Document Center


Charts